Cessnock, New South Wales

4:08 AM AEDT on October 22, 2014 (GMT +1100)
Aberdare | Change Station
CLOSE
Current Station
Personal Weather Station
Location: Cessnock, N.S.W.
Elevation: 290 ft
Nearby Weather Stations

Elev 290 ft 32.84 °S, 151.37 °E | Updated 58 seconds ago

Light Rain Showers
Light Showers Rain
50.5 °F
Feels Like 50.5 °F
N
0.0
Wind Variable Wind from WNW
Gusts 0.0 mph

Today
High -- | Low -- °F
--% Chance of Precip.
Yesterday
High -- | Low -- °F
Precip. -- in
6:06 AM 7:12 PM
Waning Crescent, 5% visible
Pressure 30.33 in
Visibility 6.2 miles
Clouds Scattered Clouds 3500 ft
Overcast 5200 ft
Dew Point 49 °F
Humidity 95%
Rainfall 0.00 in
Snow Depth Not available.
UV 0 out of 12
Pollen Not available.
Air Quality Not available.
Flu Activity Not available.
METAR YWLM 211700Z AUTO 03001KT 9999 -SHRA SCT035 OVC052 13/12 Q1027

More Conditions Fewer Conditions

Pressure 30.33 in
Visibility 6.2 miles
Clouds Scattered Clouds 3500 ft
Overcast 5200 ft
Dew Point 49 °F
Humidity 95%
Rainfall 0.00 in
Snow Depth Not available.
UV 0 out of 12
Pollen Not available.
Air Quality Not available.
Flu Activity Not available.
METAR YWLM 211700Z AUTO 03001KT 9999 -SHRA SCT035 OVC052 13/12 Q1027

More Conditions Fewer Conditions

10-Day Weather Forecast

Almanac

Astronomy

Oct. 22, 2014 Rise Set
Actual Time 6:06 AM AEDT 7:12 PM AEDT
Civil Twilight 5:41 AM AEDT 7:37 PM AEDT
Nautical Twilight 5:11 AM AEDT 8:08 PM AEDT
Astronomical Twilight 4:39 AM AEDT 8:39 PM AEDT
Moon 4:58 AM AEDT (10/22) 5:39 PM AEDT (10/22)
Length of Visible Light 13h 56m
Length of Day
13h 05m
Tomorrow will be 1m 55s longer.
Waning Crescent, 5% of the Moon is Illuminated
Oct 21
Waning Crescent
Oct 23
New
Oct 30
First Quarter
Nov 6
Full
Nov 14
Last Quarter

Yesterday's Extremes

Country Highs Country Lows

Community

WunderPhotos

Upload Photos

1,763,713 photos uploaded!

Nearby

Snow Depth

Not available.

Earthquake Activity

City Distance Mag. Time & Date
No recent earthquake activity has been reported nearby.
Minimum magnitude displayed is 2.5.

Coastal Water Temperatures

Place Temperature
No Stations Reporting

Nearby Weather Stations